sensor_id;sensor_type;location;lat;lon;timestamp;P1;durP1;ratioP1;P2;durP2;ratioP2
13343;SDS011;6741;48.964;9.406;2023-05-07T00:00:44;4.53;;;3.10;;
13343;SDS011;6741;48.964;9.406;2023-05-07T00:03:11;3.30;;;3.00;;
13343;SDS011;6741;48.964;9.406;2023-05-07T00:05:38;4.23;;;3.03;;
13343;SDS011;6741;48.964;9.406;2023-05-07T00:08:06;3.37;;;3.07;;
13343;SDS011;6741;48.964;9.406;2023-05-07T00:10:33;3.30;;;2.93;;
13343;SDS011;6741;48.964;9.406;2023-05-07T00:13:01;3.27;;;3.07;;
13343;SDS011;6741;48.964;9.406;2023-05-07T00:15:28;3.13;;;2.93;;
13343;SDS011;6741;48.964;9.406;2023-05-07T00:17:55;5.03;;;3.17;;
13343;SDS011;6741;48.964;9.406;2023-05-07T00:20:23;3.63;;;2.90;;
13343;SDS011;6741;48.964;9.406;2023-05-07T00:22:50;3.13;;;2.93;;
13343;SDS011;6741;48.964;9.406;2023-05-07T00:25:17;3.23;;;2.93;;
13343;SDS011;6741;48.964;9.406;2023-05-07T00:27:45;3.33;;;2.80;;
13343;SDS011;6741;48.964;9.406;2023-05-07T00:30:13;3.40;;;3.10;;
13343;SDS011;6741;48.964;9.406;2023-05-07T00:32:40;3.10;;;2.90;;
13343;SDS011;6741;48.964;9.406;2023-05-07T00:35:07;2.60;;;2.47;;
13343;SDS011;6741;48.964;9.406;2023-05-07T00:37:35;3.33;;;3.03;;
13343;SDS011;6741;48.964;9.406;2023-05-07T00:40:02;3.47;;;2.77;;
13343;SDS011;6741;48.964;9.406;2023-05-07T00:42:32;2.93;;;2.73;;
13343;SDS011;6741;48.964;9.406;2023-05-07T00:44:59;3.40;;;2.73;;
13343;SDS011;6741;48.964;9.406;2023-05-07T00:47:27;3.30;;;3.00;;
13343;SDS011;6741;48.964;9.406;2023-05-07T00:49:54;3.43;;;3.13;;
13343;SDS011;6741;48.964;9.406;2023-05-07T00:52:21;4.67;;;3.17;;
13343;SDS011;6741;48.964;9.406;2023-05-07T00:54:51;3.27;;;2.83;;
13343;SDS011;6741;48.964;9.406;2023-05-07T00:57:20;5.10;;;3.10;;
13343;SDS011;6741;48.964;9.406;2023-05-07T00:59:48;5.17;;;3.10;;
13343;SDS011;6741;48.964;9.406;2023-05-07T01:02:15;3.03;;;2.83;;
13343;SDS011;6741;48.964;9.406;2023-05-07T01:04:44;5.40;;;3.30;;
13343;SDS011;6741;48.964;9.406;2023-05-07T01:07:10;3.27;;;3.07;;
13343;SDS011;6741;48.964;9.406;2023-05-07T01:09:38;3.60;;;2.93;;
13343;SDS011;6741;48.964;9.406;2023-05-07T01:12:06;3.60;;;3.30;;
13343;SDS011;6741;48.964;9.406;2023-05-07T01:14:34;3.50;;;3.20;;
13343;SDS011;6741;48.964;9.406;2023-05-07T01:17:01;3.00;;;2.80;;
13343;SDS011;6741;48.964;9.406;2023-05-07T01:19:28;3.47;;;3.17;;
13343;SDS011;6741;48.964;9.406;2023-05-07T01:22:07;4.47;;;3.17;;
13343;SDS011;6741;48.964;9.406;2023-05-07T01:24:37;3.73;;;3.20;;
13343;SDS011;6741;48.964;9.406;2023-05-07T01:27:04;2.90;;;2.70;;
13343;SDS011;6741;48.964;9.406;2023-05-07T01:29:31;3.73;;;3.23;;
13343;SDS011;6741;48.964;9.406;2023-05-07T01:31:58;4.40;;;3.10;;
13343;SDS011;6741;48.964;9.406;2023-05-07T01:34:27;3.60;;;3.30;;
13343;SDS011;6741;48.964;9.406;2023-05-07T01:36:56;4.70;;;3.60;;
13343;SDS011;6741;48.964;9.406;2023-05-07T01:39:26;4.37;;;3.10;;
13343;SDS011;6741;48.964;9.406;2023-05-07T01:41:56;3.73;;;3.43;;
13343;SDS011;6741;48.964;9.406;2023-05-07T01:44:23;4.67;;;3.30;;
13343;SDS011;6741;48.964;9.406;2023-05-07T01:46:50;5.37;;;3.43;;
13343;SDS011;6741;48.964;9.406;2023-05-07T01:49:17;3.40;;;3.10;;
13343;SDS011;6741;48.964;9.406;2023-05-07T01:51:44;3.90;;;3.50;;
13343;SDS011;6741;48.964;9.406;2023-05-07T01:54:11;3.57;;;3.27;;
13343;SDS011;6741;48.964;9.406;2023-05-07T01:56:39;4.93;;;3.63;;
13343;SDS011;6741;48.964;9.406;2023-05-07T01:59:08;4.27;;;3.00;;
13343;SDS011;6741;48.964;9.406;2023-05-07T02:01:35;3.43;;;3.23;;
13343;SDS011;6741;48.964;9.406;2023-05-07T02:04:02;5.80;;;3.43;;
13343;SDS011;6741;48.964;9.406;2023-05-07T02:06:29;5.93;;;3.30;;
13343;SDS011;6741;48.964;9.406;2023-05-07T02:08:56;3.90;;;3.43;;
13343;SDS011;6741;48.964;9.406;2023-05-07T02:11:23;3.57;;;3.27;;
13343;SDS011;6741;48.964;9.406;2023-05-07T02:13:50;3.13;;;2.90;;
13343;SDS011;6741;48.964;9.406;2023-05-07T02:16:19;5.70;;;3.40;;
13343;SDS011;6741;48.964;9.406;2023-05-07T02:18:46;3.77;;;3.07;;
13343;SDS011;6741;48.964;9.406;2023-05-07T02:21:13;3.57;;;3.27;;
13343;SDS011;6741;48.964;9.406;2023-05-07T02:23:40;3.87;;;3.40;;
13343;SDS011;6741;48.964;9.406;2023-05-07T02:26:07;6.63;;;3.50;;
13343;SDS011;6741;48.964;9.406;2023-05-07T02:28:34;3.40;;;3.10;;
13343;SDS011;6741;48.964;9.406;2023-05-07T02:31:02;4.97;;;3.37;;
13343;SDS011;6741;48.964;9.406;2023-05-07T02:33:30;3.90;;;3.17;;
13343;SDS011;6741;48.964;9.406;2023-05-07T02:36:04;3.33;;;3.10;;
13343;SDS011;6741;48.964;9.406;2023-05-07T02:38:32;3.30;;;3.00;;
13343;SDS011;6741;48.964;9.406;2023-05-07T02:40:59;3.83;;;3.43;;
13343;SDS011;6741;48.964;9.406;2023-05-07T02:43:26;3.77;;;3.37;;
13343;SDS011;6741;48.964;9.406;2023-05-07T02:46:00;4.50;;;3.40;;
13343;SDS011;6741;48.964;9.406;2023-05-07T02:48:27;3.60;;;3.30;;
13343;SDS011;6741;48.964;9.406;2023-05-07T02:50:56;3.60;;;3.27;;
13343;SDS011;6741;48.964;9.406;2023-05-07T02:53:23;3.57;;;3.27;;
13343;SDS011;6741;48.964;9.406;2023-05-07T02:55:51;3.80;;;3.17;;
13343;SDS011;6741;48.964;9.406;2023-05-07T02:58:18;4.17;;;3.47;;
13343;SDS011;6741;48.964;9.406;2023-05-07T03:00:45;3.70;;;3.27;;
13343;SDS011;6741;48.964;9.406;2023-05-07T03:03:12;6.03;;;3.60;;
13343;SDS011;6741;48.964;9.406;2023-05-07T03:05:39;4.07;;;3.23;;
13343;SDS011;6741;48.964;9.406;2023-05-07T03:08:07;3.57;;;3.17;;
13343;SDS011;6741;48.964;9.406;2023-05-07T03:10:34;3.57;;;3.27;;
13343;SDS011;6741;48.964;9.406;2023-05-07T03:13:02;3.80;;;3.50;;
13343;SDS011;6741;48.964;9.406;2023-05-07T03:15:29;6.80;;;3.60;;
13343;SDS011;6741;48.964;9.406;2023-05-07T03:17:56;3.30;;;3.00;;
13343;SDS011;6741;48.964;9.406;2023-05-07T03:20:23;3.80;;;3.50;;
13343;SDS011;6741;48.964;9.406;2023-05-07T03:22:50;4.17;;;3.57;;
13343;SDS011;6741;48.964;9.406;2023-05-07T03:25:18;3.53;;;3.23;;
13343;SDS011;6741;48.964;9.406;2023-05-07T03:27:45;5.60;;;3.80;;
13343;SDS011;6741;48.964;9.406;2023-05-07T03:30:12;4.27;;;3.70;;
13343;SDS011;6741;48.964;9.406;2023-05-07T03:32:39;3.90;;;3.60;;
13343;SDS011;6741;48.964;9.406;2023-05-07T03:35:06;4.17;;;3.77;;
13343;SDS011;6741;48.964;9.406;2023-05-07T03:37:33;3.73;;;3.43;;
13343;SDS011;6741;48.964;9.406;2023-05-07T03:40:00;3.53;;;3.23;;
13343;SDS011;6741;48.964;9.406;2023-05-07T03:42:29;3.73;;;3.13;;
13343;SDS011;6741;48.964;9.406;2023-05-07T03:44:56;3.50;;;3.20;;
13343;SDS011;6741;48.964;9.406;2023-05-07T03:47:23;7.40;;;3.63;;
13343;SDS011;6741;48.964;9.406;2023-05-07T03:49:50;3.80;;;3.50;;
13343;SDS011;6741;48.964;9.406;2023-05-07T03:52:18;15.40;;;4.20;;
13343;SDS011;6741;48.964;9.406;2023-05-07T03:54:50;4.80;;;3.50;;
13343;SDS011;6741;48.964;9.406;2023-05-07T03:57:17;3.97;;;3.57;;
13343;SDS011;6741;48.964;9.406;2023-05-07T03:59:45;4.33;;;3.93;;
13343;SDS011;6741;48.964;9.406;2023-05-07T04:02:12;5.67;;;3.17;;
13343;SDS011;6741;48.964;9.406;2023-05-07T04:04:39;4.53;;;3.47;;
13343;SDS011;6741;48.964;9.406;2023-05-07T04:07:06;3.80;;;3.50;;
13343;SDS011;6741;48.964;9.406;2023-05-07T04:09:33;4.57;;;3.23;;
13343;SDS011;6741;48.964;9.406;2023-05-07T04:12:00;4.53;;;3.80;;
13343;SDS011;6741;48.964;9.406;2023-05-07T04:14:27;3.97;;;3.60;;
13343;SDS011;6741;48.964;9.406;2023-05-07T04:16:56;4.10;;;3.70;;
13343;SDS011;6741;48.964;9.406;2023-05-07T04:19:23;3.97;;;3.60;;
13343;SDS011;6741;48.964;9.406;2023-05-07T04:21:50;3.80;;;3.50;;
13343;SDS011;6741;48.964;9.406;2023-05-07T04:24:17;4.07;;;3.50;;
13343;SDS011;6741;48.964;9.406;2023-05-07T04:26:44;4.00;;;3.70;;
13343;SDS011;6741;48.964;9.406;2023-05-07T04:29:11;4.17;;;3.87;;
13343;SDS011;6741;48.964;9.406;2023-05-07T04:31:38;5.13;;;3.90;;
13343;SDS011;6741;48.964;9.406;2023-05-07T04:34:06;3.50;;;3.20;;
13343;SDS011;6741;48.964;9.406;2023-05-07T04:36:34;3.67;;;3.37;;
13343;SDS011;6741;48.964;9.406;2023-05-07T04:39:02;3.97;;;3.60;;
13343;SDS011;6741;48.964;9.406;2023-05-07T04:41:29;4.27;;;3.87;;
13343;SDS011;6741;48.964;9.406;2023-05-07T04:43:56;4.10;;;3.80;;
13343;SDS011;6741;48.964;9.406;2023-05-07T04:46:24;4.20;;;3.80;;
13343;SDS011;6741;48.964;9.406;2023-05-07T04:48:50;3.53;;;3.23;;
13343;SDS011;6741;48.964;9.406;2023-05-07T04:51:19;5.47;;;3.90;;
13343;SDS011;6741;48.964;9.406;2023-05-07T04:53:46;4.20;;;3.67;;
13343;SDS011;6741;48.964;9.406;2023-05-07T04:56:12;3.73;;;3.27;;
13343;SDS011;6741;48.964;9.406;2023-05-07T04:58:39;4.63;;;3.63;;
13343;SDS011;6741;48.964;9.406;2023-05-07T05:01:06;3.50;;;3.20;;
13343;SDS011;6741;48.964;9.406;2023-05-07T05:03:33;4.00;;;3.50;;
13343;SDS011;6741;48.964;9.406;2023-05-07T05:06:00;4.20;;;3.80;;
13343;SDS011;6741;48.964;9.406;2023-05-07T05:08:29;4.13;;;3.83;;
13343;SDS011;6741;48.964;9.406;2023-05-07T05:10:56;4.13;;;3.60;;
13343;SDS011;6741;48.964;9.406;2023-05-07T05:13:23;4.23;;;3.57;;
13343;SDS011;6741;48.964;9.406;2023-05-07T05:15:50;6.03;;;4.50;;
13343;SDS011;6741;48.964;9.406;2023-05-07T05:18:17;5.50;;;5.00;;
13343;SDS011;6741;48.964;9.406;2023-05-07T05:20:43;6.17;;;5.57;;
13343;SDS011;6741;48.964;9.406;2023-05-07T05:23:10;3.70;;;3.40;;
13343;SDS011;6741;48.964;9.406;2023-05-07T05:25:39;3.90;;;3.60;;
13343;SDS011;6741;48.964;9.406;2023-05-07T05:28:05;4.00;;;3.70;;
13343;SDS011;6741;48.964;9.406;2023-05-07T05:30:32;9.27;;;8.00;;
13343;SDS011;6741;48.964;9.406;2023-05-07T05:32:59;10.93;;;9.83;;
13343;SDS011;6741;48.964;9.406;2023-05-07T05:35:26;12.73;;;11.40;;
13343;SDS011;6741;48.964;9.406;2023-05-07T05:37:53;5.40;;;4.97;;
13343;SDS011;6741;48.964;9.406;2023-05-07T05:40:20;6.33;;;4.97;;
13343;SDS011;6741;48.964;9.406;2023-05-07T05:42:48;4.50;;;4.20;;
13343;SDS011;6741;48.964;9.406;2023-05-07T05:45:15;7.03;;;4.10;;
13343;SDS011;6741;48.964;9.406;2023-05-07T05:47:42;6.13;;;3.53;;
13343;SDS011;6741;48.964;9.406;2023-05-07T05:50:09;4.30;;;4.00;;
13343;SDS011;6741;48.964;9.406;2023-05-07T05:52:36;3.90;;;3.60;;
13343;SDS011;6741;48.964;9.406;2023-05-07T05:55:03;3.97;;;3.60;;
13343;SDS011;6741;48.964;9.406;2023-05-07T05:57:31;3.60;;;3.30;;
13343;SDS011;6741;48.964;9.406;2023-05-07T05:59:59;3.57;;;3.07;;
13343;SDS011;6741;48.964;9.406;2023-05-07T06:02:27;3.97;;;3.30;;
13343;SDS011;6741;48.964;9.406;2023-05-07T06:04:55;4.40;;;4.00;;
13343;SDS011;6741;48.964;9.406;2023-05-07T06:07:21;3.47;;;3.20;;
13343;SDS011;6741;48.964;9.406;2023-05-07T06:09:48;3.40;;;3.10;;
13343;SDS011;6741;48.964;9.406;2023-05-07T06:12:15;3.70;;;3.00;;
13343;SDS011;6741;48.964;9.406;2023-05-07T06:14:42;3.33;;;3.03;;
13343;SDS011;6741;48.964;9.406;2023-05-07T06:17:11;2.90;;;2.70;;
13343;SDS011;6741;48.964;9.406;2023-05-07T06:19:38;3.67;;;3.37;;
13343;SDS011;6741;48.964;9.406;2023-05-07T06:22:04;3.30;;;3.00;;
13343;SDS011;6741;48.964;9.406;2023-05-07T06:24:31;3.08;;;2.88;;
13343;SDS011;6741;48.964;9.406;2023-05-07T06:26:58;3.22;;;3.03;;
13343;SDS011;6741;48.964;9.406;2023-05-07T06:29:25;3.35;;;3.05;;
13343;SDS011;6741;48.964;9.406;2023-05-07T06:31:52;3.28;;;3.00;;
13343;SDS011;6741;48.964;9.406;2023-05-07T06:34:21;3.10;;;2.80;;
13343;SDS011;6741;48.964;9.406;2023-05-07T06:36:48;3.75;;;3.05;;
13343;SDS011;6741;48.964;9.406;2023-05-07T06:39:15;3.10;;;2.90;;
13343;SDS011;6741;48.964;9.406;2023-05-07T06:41:41;3.50;;;3.20;;
13343;SDS011;6741;48.964;9.406;2023-05-07T06:44:08;3.22;;;3.00;;
13343;SDS011;6741;48.964;9.406;2023-05-07T06:46:35;3.08;;;2.78;;
13343;SDS011;6741;48.964;9.406;2023-05-07T06:49:02;2.88;;;2.67;;
13343;SDS011;6741;48.964;9.406;2023-05-07T06:51:30;5.47;;;2.67;;
13343;SDS011;6741;48.964;9.406;2023-05-07T06:53:57;2.75;;;2.55;;
13343;SDS011;6741;48.964;9.406;2023-05-07T06:56:24;3.50;;;3.20;;
13343;SDS011;6741;48.964;9.406;2023-05-07T06:58:51;3.38;;;3.08;;
13343;SDS011;6741;48.964;9.406;2023-05-07T07:01:18;3.00;;;2.80;;
13343;SDS011;6741;48.964;9.406;2023-05-07T07:03:45;3.90;;;2.97;;
13343;SDS011;6741;48.964;9.406;2023-05-07T07:06:12;2.97;;;2.78;;
13343;SDS011;6741;48.964;9.406;2023-05-07T07:08:40;2.80;;;2.60;;
13343;SDS011;6741;48.964;9.406;2023-05-07T07:11:07;3.10;;;2.90;;
13343;SDS011;6741;48.964;9.406;2023-05-07T07:13:35;3.10;;;2.90;;
13343;SDS011;6741;48.964;9.406;2023-05-07T07:16:02;4.25;;;3.88;;
13343;SDS011;6741;48.964;9.406;2023-05-07T07:18:29;3.20;;;2.90;;
13343;SDS011;6741;48.964;9.406;2023-05-07T07:20:56;2.80;;;2.60;;
13343;SDS011;6741;48.964;9.406;2023-05-07T07:23:23;6.43;;;3.17;;
13343;SDS011;6741;48.964;9.406;2023-05-07T07:25:51;3.05;;;2.70;;
13343;SDS011;6741;48.964;9.406;2023-05-07T07:28:20;2.40;;;2.20;;
13343;SDS011;6741;48.964;9.406;2023-05-07T07:30:47;2.80;;;2.60;;
13343;SDS011;6741;48.964;9.406;2023-05-07T07:33:14;3.22;;;2.70;;
13343;SDS011;6741;48.964;9.406;2023-05-07T07:35:41;2.53;;;2.30;;
13343;SDS011;6741;48.964;9.406;2023-05-07T07:38:08;2.88;;;2.67;;
13343;SDS011;6741;48.964;9.406;2023-05-07T07:40:35;3.97;;;2.35;;
13343;SDS011;6741;48.964;9.406;2023-05-07T07:43:03;2.67;;;2.47;;
13343;SDS011;6741;48.964;9.406;2023-05-07T07:45:31;4.53;;;2.15;;
13343;SDS011;6741;48.964;9.406;2023-05-07T07:47:58;2.20;;;2.10;;
13343;SDS011;6741;48.964;9.406;2023-05-07T07:50:24;3.28;;;2.53;;
13343;SDS011;6741;48.964;9.406;2023-05-07T07:52:51;2.60;;;2.20;;
13343;SDS011;6741;48.964;9.406;2023-05-07T07:55:19;2.15;;;1.95;;
13343;SDS011;6741;48.964;9.406;2023-05-07T07:57:48;3.03;;;2.33;;
13343;SDS011;6741;48.964;9.406;2023-05-07T08:00:17;1.90;;;1.80;;
13343;SDS011;6741;48.964;9.406;2023-05-07T08:02:44;4.03;;;2.10;;
13343;SDS011;6741;48.964;9.406;2023-05-07T08:05:11;2.28;;;2.13;;
13343;SDS011;6741;48.964;9.406;2023-05-07T08:07:38;2.30;;;2.20;;
13343;SDS011;6741;48.964;9.406;2023-05-07T08:10:05;2.15;;;2.05;;
13343;SDS011;6741;48.964;9.406;2023-05-07T08:12:32;3.20;;;2.35;;
13343;SDS011;6741;48.964;9.406;2023-05-07T08:15:00;2.42;;;2.22;;
13343;SDS011;6741;48.964;9.406;2023-05-07T08:17:28;2.05;;;1.95;;
13343;SDS011;6741;48.964;9.406;2023-05-07T08:19:55;2.60;;;1.80;;
13343;SDS011;6741;48.964;9.406;2023-05-07T08:22:22;3.75;;;2.00;;
13343;SDS011;6741;48.964;9.406;2023-05-07T08:24:48;2.60;;;2.00;;
13343;SDS011;6741;48.964;9.406;2023-05-07T08:27:16;2.15;;;1.75;;
13343;SDS011;6741;48.964;9.406;2023-05-07T08:29:43;5.28;;;2.28;;
13343;SDS011;6741;48.964;9.406;2023-05-07T08:32:12;2.20;;;2.00;;
13343;SDS011;6741;48.964;9.406;2023-05-07T08:34:41;2.00;;;1.90;;
13343;SDS011;6741;48.964;9.406;2023-05-07T08:37:08;2.60;;;2.40;;
13343;SDS011;6741;48.964;9.406;2023-05-07T08:39:35;2.00;;;1.90;;
13343;SDS011;6741;48.964;9.406;2023-05-07T08:42:02;2.78;;;2.15;;
13343;SDS011;6741;48.964;9.406;2023-05-07T08:44:32;2.50;;;2.28;;
13343;SDS011;6741;48.964;9.406;2023-05-07T08:47:00;2.88;;;1.88;;
13343;SDS011;6741;48.964;9.406;2023-05-07T08:49:28;2.63;;;2.00;;
13343;SDS011;6741;48.964;9.406;2023-05-07T08:51:57;3.28;;;1.90;;
13343;SDS011;6741;48.964;9.406;2023-05-07T08:54:24;1.85;;;1.73;;
13343;SDS011;6741;48.964;9.406;2023-05-07T08:56:52;1.70;;;1.60;;
13343;SDS011;6741;48.964;9.406;2023-05-07T08:59:19;3.22;;;1.70;;
13343;SDS011;6741;48.964;9.406;2023-05-07T09:01:46;1.92;;;1.83;;
13343;SDS011;6741;48.964;9.406;2023-05-07T09:04:13;2.40;;;1.85;;
13343;SDS011;6741;48.964;9.406;2023-05-07T09:06:40;2.25;;;1.70;;
13343;SDS011;6741;48.964;9.406;2023-05-07T09:09:08;2.45;;;1.75;;
13343;SDS011;6741;48.964;9.406;2023-05-07T09:11:35;2.22;;;1.83;;
13343;SDS011;6741;48.964;9.406;2023-05-07T09:14:02;1.83;;;1.73;;
13343;SDS011;6741;48.964;9.406;2023-05-07T09:16:29;1.70;;;1.60;;
13343;SDS011;6741;48.964;9.406;2023-05-07T09:18:57;2.45;;;1.83;;
13343;SDS011;6741;48.964;9.406;2023-05-07T09:21:25;3.75;;;1.90;;
13343;SDS011;6741;48.964;9.406;2023-05-07T09:23:53;1.67;;;1.58;;
13343;SDS011;6741;48.964;9.406;2023-05-07T09:26:23;2.33;;;2.00;;
13343;SDS011;6741;48.964;9.406;2023-05-07T09:28:51;1.90;;;1.60;;
13343;SDS011;6741;48.964;9.406;2023-05-07T09:31:18;2.25;;;2.05;;
13343;SDS011;6741;48.964;9.406;2023-05-07T09:33:46;1.90;;;1.80;;
13343;SDS011;6741;48.964;9.406;2023-05-07T09:36:13;2.00;;;1.83;;
13343;SDS011;6741;48.964;9.406;2023-05-07T09:38:40;3.78;;;2.05;;
13343;SDS011;6741;48.964;9.406;2023-05-07T09:41:08;2.05;;;1.70;;
13343;SDS011;6741;48.964;9.406;2023-05-07T09:43:38;2.58;;;1.67;;
13343;SDS011;6741;48.964;9.406;2023-05-07T09:46:11;2.13;;;1.63;;
13343;SDS011;6741;48.964;9.406;2023-05-07T09:48:40;1.90;;;1.80;;
13343;SDS011;6741;48.964;9.406;2023-05-07T09:51:11;2.15;;;1.65;;
13343;SDS011;6741;48.964;9.406;2023-05-07T09:53:52;2.00;;;1.83;;
13343;SDS011;6741;48.964;9.406;2023-05-07T09:56:19;2.20;;;1.92;;
13343;SDS011;6741;48.964;9.406;2023-05-07T09:58:48;1.63;;;1.40;;
13343;SDS011;6741;48.964;9.406;2023-05-07T10:01:18;1.90;;;1.80;;
13343;SDS011;6741;48.964;9.406;2023-05-07T10:03:47;2.15;;;1.80;;
13343;SDS011;6741;48.964;9.406;2023-05-07T10:06:17;2.00;;;1.60;;
13343;SDS011;6741;48.964;9.406;2023-05-07T10:08:45;1.60;;;1.50;;
13343;SDS011;6741;48.964;9.406;2023-05-07T10:11:12;1.40;;;1.30;;
13343;SDS011;6741;48.964;9.406;2023-05-07T10:13:40;1.50;;;1.40;;
13343;SDS011;6741;48.964;9.406;2023-05-07T10:16:10;2.10;;;1.60;;
13343;SDS011;6741;48.964;9.406;2023-05-07T10:18:37;1.60;;;1.50;;
13343;SDS011;6741;48.964;9.406;2023-05-07T10:21:07;1.95;;;1.45;;
13343;SDS011;6741;48.964;9.406;2023-05-07T10:23:35;2.28;;;1.50;;
13343;SDS011;6741;48.964;9.406;2023-05-07T10:26:03;1.50;;;1.40;;
13343;SDS011;6741;48.964;9.406;2023-05-07T10:28:33;1.73;;;1.48;;
13343;SDS011;6741;48.964;9.406;2023-05-07T10:31:07;1.50;;;1.40;;
13343;SDS011;6741;48.964;9.406;2023-05-07T10:33:46;3.80;;;1.60;;
13343;SDS011;6741;48.964;9.406;2023-05-07T10:36:15;2.63;;;1.63;;
13343;SDS011;6741;48.964;9.406;2023-05-07T10:38:43;1.25;;;1.20;;
13343;SDS011;6741;48.964;9.406;2023-05-07T10:41:11;1.67;;;1.58;;
13343;SDS011;6741;48.964;9.406;2023-05-07T10:43:39;2.03;;;1.83;;
13343;SDS011;6741;48.964;9.406;2023-05-07T10:46:11;1.67;;;1.58;;
13343;SDS011;6741;48.964;9.406;2023-05-07T10:51:40;2.60;;;1.80;;
13343;SDS011;6741;48.964;9.406;2023-05-07T10:54:20;2.20;;;1.40;;
13343;SDS011;6741;48.964;9.406;2023-05-07T10:56:48;1.77;;;1.45;;
13343;SDS011;6741;48.964;9.406;2023-05-07T10:59:35;2.15;;;1.60;;
13343;SDS011;6741;48.964;9.406;2023-05-07T11:02:09;1.60;;;1.50;;
13343;SDS011;6741;48.964;9.406;2023-05-07T11:04:39;2.78;;;1.63;;
13343;SDS011;6741;48.964;9.406;2023-05-07T11:10:01;1.80;;;1.42;;
13343;SDS011;6741;48.964;9.406;2023-05-07T11:18:06;1.60;;;1.50;;
13343;SDS011;6741;48.964;9.406;2023-05-07T11:26:24;3.38;;;1.40;;
13343;SDS011;6741;48.964;9.406;2023-05-07T11:28:56;2.08;;;1.33;;
13343;SDS011;6741;48.964;9.406;2023-05-07T11:31:25;2.13;;;1.40;;
13343;SDS011;6741;48.964;9.406;2023-05-07T11:33:56;2.45;;;1.45;;
13343;SDS011;6741;48.964;9.406;2023-05-07T11:36:24;1.25;;;1.15;;
13343;SDS011;6741;48.964;9.406;2023-05-07T11:38:52;2.15;;;1.48;;
13343;SDS011;6741;48.964;9.406;2023-05-07T11:41:19;1.80;;;1.50;;
13343;SDS011;6741;48.964;9.406;2023-05-07T11:43:53;1.63;;;1.33;;
13343;SDS011;6741;48.964;9.406;2023-05-07T11:46:22;1.50;;;1.40;;
13343;SDS011;6741;48.964;9.406;2023-05-07T11:48:49;2.08;;;1.50;;
13343;SDS011;6741;48.964;9.406;2023-05-07T11:51:20;1.33;;;1.23;;
13343;SDS011;6741;48.964;9.406;2023-05-07T11:53:51;1.98;;;1.42;;
13343;SDS011;6741;48.964;9.406;2023-05-07T11:56:19;2.20;;;1.63;;
13343;SDS011;6741;48.964;9.406;2023-05-07T11:58:47;2.55;;;1.70;;
13343;SDS011;6741;48.964;9.406;2023-05-07T12:01:17;1.65;;;1.52;;
13343;SDS011;6741;48.964;9.406;2023-05-07T12:03:44;1.75;;;1.58;;
13343;SDS011;6741;48.964;9.406;2023-05-07T12:06:12;1.75;;;1.50;;
13343;SDS011;6741;48.964;9.406;2023-05-07T12:08:42;1.60;;;1.50;;
13343;SDS011;6741;48.964;9.406;2023-05-07T12:11:12;1.52;;;1.42;;
13343;SDS011;6741;48.964;9.406;2023-05-07T12:13:42;1.50;;;1.40;;
13343;SDS011;6741;48.964;9.406;2023-05-07T12:16:09;2.63;;;1.85;;
13343;SDS011;6741;48.964;9.406;2023-05-07T12:18:37;1.50;;;1.40;;
13343;SDS011;6741;48.964;9.406;2023-05-07T12:21:04;1.67;;;1.50;;
13343;SDS011;6741;48.964;9.406;2023-05-07T12:23:33;1.80;;;1.70;;
13343;SDS011;6741;48.964;9.406;2023-05-07T12:26:03;2.47;;;1.67;;
13343;SDS011;6741;48.964;9.406;2023-05-07T12:28:30;2.90;;;1.88;;
13343;SDS011;6741;48.964;9.406;2023-05-07T12:31:02;1.85;;;1.70;;
13343;SDS011;6741;48.964;9.406;2023-05-07T12:33:29;2.28;;;1.85;;
13343;SDS011;6741;48.964;9.406;2023-05-07T12:35:57;3.22;;;1.63;;
13343;SDS011;6741;48.964;9.406;2023-05-07T12:38:32;1.52;;;1.42;;
13343;SDS011;6741;48.964;9.406;2023-05-07T12:41:03;2.60;;;1.65;;
13343;SDS011;6741;48.964;9.406;2023-05-07T12:43:30;1.67;;;1.58;;
13343;SDS011;6741;48.964;9.406;2023-05-07T12:45:59;2.80;;;1.80;;
13343;SDS011;6741;48.964;9.406;2023-05-07T12:48:27;2.28;;;1.70;;
13343;SDS011;6741;48.964;9.406;2023-05-07T12:50:55;2.15;;;1.80;;
13343;SDS011;6741;48.964;9.406;2023-05-07T12:53:23;1.90;;;1.75;;
13343;SDS011;6741;48.964;9.406;2023-05-07T12:55:53;4.55;;;2.00;;
13343;SDS011;6741;48.964;9.406;2023-05-07T12:58:24;2.38;;;1.80;;
13343;SDS011;6741;48.964;9.406;2023-05-07T13:00:53;2.95;;;2.35;;
13343;SDS011;6741;48.964;9.406;2023-05-07T13:03:24;2.15;;;1.92;;
13343;SDS011;6741;48.964;9.406;2023-05-07T13:05:52;3.15;;;2.10;;
13343;SDS011;6741;48.964;9.406;2023-05-07T13:08:23;2.40;;;2.20;;
13343;SDS011;6741;48.964;9.406;2023-05-07T13:10:54;2.42;;;2.22;;
13343;SDS011;6741;48.964;9.406;2023-05-07T13:13:21;5.03;;;2.53;;
13343;SDS011;6741;48.964;9.406;2023-05-07T13:15:50;2.22;;;2.00;;
13343;SDS011;6741;48.964;9.406;2023-05-07T13:18:17;7.38;;;3.53;;
13343;SDS011;6741;48.964;9.406;2023-05-07T13:20:44;4.32;;;3.00;;
13343;SDS011;6741;48.964;9.406;2023-05-07T13:23:11;5.63;;;3.42;;
13343;SDS011;6741;48.964;9.406;2023-05-07T13:25:37;7.97;;;3.75;;
13343;SDS011;6741;48.964;9.406;2023-05-07T13:28:05;4.85;;;3.03;;
13343;SDS011;6741;48.964;9.406;2023-05-07T13:30:31;2.47;;;2.28;;
13343;SDS011;6741;48.964;9.406;2023-05-07T13:33:00;5.38;;;3.10;;
13343;SDS011;6741;48.964;9.406;2023-05-07T13:35:27;5.05;;;2.88;;
13343;SDS011;6741;48.964;9.406;2023-05-07T13:37:54;4.57;;;2.60;;
13343;SDS011;6741;48.964;9.406;2023-05-07T13:40:21;3.65;;;2.40;;
13343;SDS011;6741;48.964;9.406;2023-05-07T13:42:48;4.60;;;2.25;;
13343;SDS011;6741;48.964;9.406;2023-05-07T13:45:16;3.08;;;2.42;;
13343;SDS011;6741;48.964;9.406;2023-05-07T13:47:43;3.35;;;2.85;;
13343;SDS011;6741;48.964;9.406;2023-05-07T13:50:11;9.60;;;2.95;;
13343;SDS011;6741;48.964;9.406;2023-05-07T13:52:40;3.10;;;2.90;;
13343;SDS011;6741;48.964;9.406;2023-05-07T13:55:08;2.95;;;2.40;;
13343;SDS011;6741;48.964;9.406;2023-05-07T13:57:36;3.00;;;2.60;;
13343;SDS011;6741;48.964;9.406;2023-05-07T14:00:03;2.92;;;2.50;;
13343;SDS011;6741;48.964;9.406;2023-05-07T14:02:31;2.75;;;2.55;;
13343;SDS011;6741;48.964;9.406;2023-05-07T14:04:58;3.03;;;2.70;;
13343;SDS011;6741;48.964;9.406;2023-05-07T14:07:26;3.58;;;2.58;;
13343;SDS011;6741;48.964;9.406;2023-05-07T14:09:53;4.65;;;2.72;;
13343;SDS011;6741;48.964;9.406;2023-05-07T14:12:20;5.55;;;3.05;;
13343;SDS011;6741;48.964;9.406;2023-05-07T14:14:47;5.05;;;2.70;;
13343;SDS011;6741;48.964;9.406;2023-05-07T14:17:15;2.47;;;2.28;;
13343;SDS011;6741;48.964;9.406;2023-05-07T14:19:42;2.65;;;2.45;;
13343;SDS011;6741;48.964;9.406;2023-05-07T14:22:09;3.67;;;2.63;;
13343;SDS011;6741;48.964;9.406;2023-05-07T14:24:37;3.13;;;2.70;;
13343;SDS011;6741;48.964;9.406;2023-05-07T14:27:05;4.90;;;2.83;;
13343;SDS011;6741;48.964;9.406;2023-05-07T14:29:31;6.45;;;3.80;;
13343;SDS011;6741;48.964;9.406;2023-05-07T14:32:01;3.20;;;2.75;;
13343;SDS011;6741;48.964;9.406;2023-05-07T14:34:28;5.35;;;4.63;;
13343;SDS011;6741;48.964;9.406;2023-05-07T14:36:55;6.20;;;5.70;;
13343;SDS011;6741;48.964;9.406;2023-05-07T14:39:22;3.97;;;3.15;;
13343;SDS011;6741;48.964;9.406;2023-05-07T14:41:51;4.55;;;3.05;;
13343;SDS011;6741;48.964;9.406;2023-05-07T14:44:21;3.15;;;2.80;;
13343;SDS011;6741;48.964;9.406;2023-05-07T14:46:47;4.28;;;3.17;;
13343;SDS011;6741;48.964;9.406;2023-05-07T14:49:14;3.75;;;3.08;;
13343;SDS011;6741;48.964;9.406;2023-05-07T14:51:42;5.25;;;3.67;;
13343;SDS011;6741;48.964;9.406;2023-05-07T14:54:10;6.00;;;3.42;;
13343;SDS011;6741;48.964;9.406;2023-05-07T14:56:37;4.13;;;2.88;;
13343;SDS011;6741;48.964;9.406;2023-05-07T14:59:05;5.70;;;3.20;;
13343;SDS011;6741;48.964;9.406;2023-05-07T15:01:33;3.37;;;2.97;;
13343;SDS011;6741;48.964;9.406;2023-05-07T15:04:01;3.67;;;2.90;;
13343;SDS011;6741;48.964;9.406;2023-05-07T15:06:29;6.57;;;2.50;;
13343;SDS011;6741;48.964;9.406;2023-05-07T15:08:56;2.20;;;2.00;;
13343;SDS011;6741;48.964;9.406;2023-05-07T15:11:23;2.70;;;2.50;;
13343;SDS011;6741;48.964;9.406;2023-05-07T15:13:50;2.77;;;2.30;;
13343;SDS011;6741;48.964;9.406;2023-05-07T15:16:18;2.63;;;2.22;;
13343;SDS011;6741;48.964;9.406;2023-05-07T15:18:45;3.80;;;3.38;;
13343;SDS011;6741;48.964;9.406;2023-05-07T15:21:12;3.88;;;3.58;;